Weather reports worldwide

Advertisment
Cabo Villano, Spain (8006): temperature & dewpoint: 18.06.2018 16:00:00 - 24.06.2018 16:00:00 (CEST)Cabo Villano, Spain (8006): wind speed & gusts: 18.06.2018 16:00:00 - 24.06.2018 16:00:00 (CEST)Cabo Villano, Spain (8006): wind direction: 18.06.2018 16:00:00 - 24.06.2018 16:00:00 (CEST)Cabo Villano, Spain (8006): precipitation: 18.06.2018 16:00:00 - 24.06.2018 16:00:00 (CEST)
Date & Time tt [°C] td [°C] ff [km/h] ff [kn] fx [km/h] fx [kn] dd rr [mm]
24.06.2018 16:00:00 21,6 14,5 11 6 38 21 WSW 0,0
24.06.2018 15:00:00 21,2 14,6 14 8 20 11 SW 0,0
24.06.2018 14:00:00 20,7 14,6 14 7 20 11 SW -
24.06.2018 13:00:00 20,2 14,1 13 7 24 13 SW 0,0
24.06.2018 12:00:00 20,5 14,2 14 7 18 10 SW 0,0
24.06.2018 11:00:00 21,5 14,4 9 5 13 7 WSW 0,0
24.06.2018 10:00:00 23,4 16,4 4 2 8 4 SW 0,0
24.06.2018 09:00:00 22,5 16,3 6 4 9 5 SSE 0,0
24.06.2018 08:00:00 19,9 15,1 4 2 10 5 ESE -
24.06.2018 07:00:00 19,3 15,2 7 4 10 6 ESE 0,0
24.06.2018 06:00:00 17,7 13,6 3 2 9 5 SSE 0,0
24.06.2018 05:00:00 16,9 12,0 3 1 8 4 ESE 0,0
24.06.2018 04:00:00 18,2 13,9 4 2 9 5 NE 0,0
24.06.2018 03:00:00 16,2 12,0 8 5 10 6 NE 0,0
24.06.2018 02:00:00 17,2 12,1 3 2 8 4 WSW -
24.06.2018 01:00:00 17,7 11,9 3 2 13 7 ENE 0,0
24.06.2018 00:00:00 18,3 11,1 10 5 13 7 S 0,0
23.06.2018 23:00:00 21,5 13,2 5 3 10 6 S 0,0
23.06.2018 22:00:00 23,6 15,1 6 3 16 9 SE 0,0
23.06.2018 21:00:00 21,1 12,3 5 3 14 8 NNE 0,0
23.06.2018 20:00:00 21,8 12,6 7 4 27 15 NE -
23.06.2018 19:00:00 21,2 11,5 11 6 23 12 NNE 0,0
23.06.2018 18:00:00 22,6 12,5 10 5 41 22 NE 0,0
23.06.2018 17:00:00 20,1 10,8 27 14 36 19 NE 0,0
23.06.2018 16:00:00 20,8 12,0 20 11 31 17 NNE 0,0
23.06.2018 15:00:00 20,1 12,1 22 12 29 16 NNE 0,0
23.06.2018 14:00:00 19,7 12,5 10 6 18 10 NE -
23.06.2018 13:00:00 20,1 14,6 11 6 18 10 NE 0,0
23.06.2018 12:00:00 19,6 14,6 9 5 23 12 NE 0,0
23.06.2018 11:00:00 18,6 14,6 18 10 28 15 NNE 0,0
23.06.2018 10:00:00 17,5 14,6 17 9 30 16 NNE 0,0
23.06.2018 09:00:00 17,9 14,6 20 11 35 19 ENE 0,0
23.06.2018 08:00:00 17,0 14,6 23 12 40 22 NE -
23.06.2018 07:00:00 16,0 14,6 18 10 30 16 NE 0,0
23.06.2018 06:00:00 16,2 14,6 23 12 34 18 ENE 0,0
23.06.2018 05:00:00 15,4 14,6 23 12 34 19 NE 0,0
23.06.2018 04:00:00 15,4 14,6 25 14 40 22 NE 0,0
23.06.2018 03:00:00 16,4 14,6 22 12 41 22 NE 0,0
23.06.2018 02:00:00 16,0 14,6 27 15 41 22 NE -
23.06.2018 01:00:00 14,7 14,6 31 17 44 24 NE 0,0
23.06.2018 00:00:00 15,3 14,6 30 16 39 21 NE 0,0
22.06.2018 23:00:00 16,0 14,6 32 18 45 24 NE 0,0
22.06.2018 22:00:00 16,3 14,6 32 17 47 25 NE 0,0
22.06.2018 21:00:00 17,4 14,6 34 18 53 28 NE 0,0
22.06.2018 20:00:00 18,3 14,6 31 17 53 29 NE -
22.06.2018 19:00:00 18,6 14,6 39 21 48 26 NE 0,0
22.06.2018 18:00:00 19,6 14,6 34 19 51 28 NE 0,0
22.06.2018 17:00:00 18,4 14,6 43 23 53 29 NE 0,0
22.06.2018 16:00:00 18,8 14,6 35 19 45 24 NE 0,0
22.06.2018 15:00:00 19,5 14,6 30 16 37 20 NNE 0,0
22.06.2018 14:00:00 19,5 14,6 31 17 45 24 NE -
22.06.2018 13:00:00 19,0 14,6 30 16 39 21 NE 0,0
22.06.2018 12:00:00 18,1 14,6 29 16 38 20 NE 0,0
22.06.2018 11:00:00 18,3 14,6 26 14 39 21 NE 0,0
22.06.2018 10:00:00 18,1 14,6 23 12 45 24 NE 0,0
22.06.2018 09:00:00 17,2 14,6 28 15 55 30 NE 0,0
22.06.2018 08:00:00 15,4 14,6 30 16 36 20 NE -
22.06.2018 07:00:00 15,6 14,6 19 10 37 20 NE 0,0
22.06.2018 06:00:00 15,6 14,6 28 15 50 27 NE 0,0
22.06.2018 05:00:00 16,2 14,6 30 16 46 25 NE 0,0
22.06.2018 04:00:00 16,0 14,6 26 14 59 32 NE 0,0
22.06.2018 03:00:00 15,9 14,6 41 22 68 37 NE 0,0
22.06.2018 02:00:00 15,7 14,6 36 19 51 28 NE -
22.06.2018 01:00:00 15,9 14,6 34 19 61 33 NE 0,0
22.06.2018 00:00:00 15,6 14,6 40 22 66 35 NE 0,0
21.06.2018 23:00:00 15,6 14,6 42 23 63 34 NE 0,0
21.06.2018 22:00:00 15,9 14,6 42 23 73 40 NE 0,0
21.06.2018 21:00:00 15,6 14,6 59 32 79 42 NE 0,0
21.06.2018 20:00:00 16,0 14,6 45 25 70 38 NE -
21.06.2018 19:00:00 16,0 14,6 55 30 74 40 NE 0,0
21.06.2018 18:00:00 16,2 14,6 55 30 72 39 NE 0,0
21.06.2018 17:00:00 16,1 14,6 51 28 64 35 NE 0,0
21.06.2018 16:00:00 16,3 14,6 48 26 61 33 NE 0,0
21.06.2018 15:00:00 16,2 14,6 42 23 59 32 NE 0,0
21.06.2018 14:00:00 16,3 14,6 44 24 52 28 NE -
21.06.2018 13:00:00 16,5 14,6 37 20 53 29 NE 0,0
21.06.2018 12:00:00 15,9 14,6 44 24 51 27 NE 0,0
21.06.2018 11:00:00 15,7 14,6 34 19 57 31 NE 0,0
21.06.2018 10:00:00 15,3 14,6 40 22 48 26 NE 0,0
21.06.2018 09:00:00 16,0 14,6 27 15 53 29 NE 0,0
21.06.2018 08:00:00 15,7 14,6 38 20 57 31 NE -
21.06.2018 07:00:00 15,7 14,6 44 24 63 34 NE 0,0
21.06.2018 06:00:00 15,8 14,6 41 22 52 28 NE 0,0
21.06.2018 05:00:00 15,9 14,6 28 15 45 25 NE 0,0
21.06.2018 04:00:00 15,8 14,6 30 16 40 21 NE 0,0
21.06.2018 03:00:00 15,9 14,6 29 16 51 28 NE 0,0
21.06.2018 02:00:00 15,8 13,6 44 24 52 28 NE -
21.06.2018 01:00:00 15,8 13,6 32 17 41 22 NE 0,0
21.06.2018 00:00:00 16,3 14,1 26 14 46 25 NE 0,0
20.06.2018 23:00:00 15,9 13,7 36 19 42 23 NE 0,0
20.06.2018 22:00:00 16,1 13,9 35 19 48 26 NE 0,0
20.06.2018 21:00:00 16,2 13,9 37 20 48 26 NE 0,0
20.06.2018 20:00:00 16,4 14,1 34 19 42 23 NE -
20.06.2018 19:00:00 16,0 13,7 32 17 41 22 NE 0,0
20.06.2018 18:00:00 16,4 13,9 34 18 44 24 NE 0,0
20.06.2018 17:00:00 16,8 14,1 33 18 43 23 NE 0,0
20.06.2018 16:00:00 16,9 14,2 32 17 46 25 NE 0,0
20.06.2018 15:00:00 17,0 14,5 39 21 52 28 NE 0,0
20.06.2018 14:00:00 16,3 14,0 41 22 52 28 NE -
20.06.2018 13:00:00 16,3 14,0 41 22 55 30 NE 0,0
20.06.2018 12:00:00 15,9 13,6 35 19 50 27 NE 0,0
20.06.2018 11:00:00 15,7 13,0 30 16 42 23 NE 0,0
20.06.2018 10:00:00 15,9 13,0 30 16 36 19 NE 0,0
20.06.2018 09:00:00 15,6 12,7 23 12 29 16 NNE 0,0
20.06.2018 08:00:00 15,4 12,5 18 10 27 15 NNE -
20.06.2018 07:00:00 14,9 12,0 15 8 20 11 NNE 0,0
20.06.2018 06:00:00 15,5 12,6 14 8 23 12 ENE 0,0
20.06.2018 05:00:00 15,0 12,3 15 8 25 14 NNE 0,0
20.06.2018 04:00:00 14,5 11,8 18 10 23 12 NNE 0,0
20.06.2018 03:00:00 14,4 11,4 10 5 21 11 NE 0,0
20.06.2018 02:00:00 14,9 11,9 14 8 23 13 NNE -
20.06.2018 01:00:00 14,6 11,2 14 8 23 12 NNE 0,0
20.06.2018 00:00:00 15,7 11,5 9 5 15 8 NE 0,0
19.06.2018 23:00:00 16,5 12,1 8 5 24 13 NE 0,0
19.06.2018 22:00:00 16,1 11,3 19 11 34 18 NNE 0,0
19.06.2018 21:00:00 16,4 10,9 27 14 38 20 NNE 0,0
19.06.2018 20:00:00 17,6 11,6 27 14 34 18 NNE -
19.06.2018 19:00:00 17,6 11,6 30 16 40 22 NNE 0,0
19.06.2018 18:00:00 18,2 12,2 31 17 48 26 NNE 0,0
19.06.2018 17:00:00 17,9 12,4 36 20 54 29 NNE 0,0
19.06.2018 16:00:00 17,5 11,8 43 23 55 30 NE 0,0
19.06.2018 15:00:00 17,9 12,1 45 24 51 28 NE 0,0
19.06.2018 14:00:00 18,1 12,5 40 22 49 26 NNE -
19.06.2018 13:00:00 18,0 12,9 39 21 49 27 NE 0,0
19.06.2018 12:00:00 17,3 13,0 41 22 62 34 NE 0,0
19.06.2018 11:00:00 16,3 12,1 52 28 61 33 NE 0,0
19.06.2018 10:00:00 16,4 12,8 41 22 58 32 NE 0,0
19.06.2018 09:00:00 15,9 12,6 39 21 52 28 NE 0,0
19.06.2018 08:00:00 15,3 12,2 41 22 53 28 NE -
19.06.2018 07:00:00 15,3 12,4 40 22 65 35 NE 0,0
19.06.2018 06:00:00 15,4 12,5 48 26 67 36 NE 0,0
19.06.2018 05:00:00 15,5 12,6 50 27 71 39 NE 0,0
19.06.2018 04:00:00 15,7 12,8 55 30 79 43 NE 0,0
19.06.2018 03:00:00 15,2 12,5 62 33 76 41 NE 0,0
19.06.2018 02:00:00 15,7 13,0 58 31 74 40 NE -
19.06.2018 01:00:00 15,8 13,1 58 32 74 40 NE 0,0
19.06.2018 00:00:00 15,5 12,8 57 31 71 38 NE 0,0
18.06.2018 23:00:00 15,3 12,6 54 29 71 39 NNE 0,0
18.06.2018 22:00:00 15,9 13,0 54 29 67 36 NE 0,0
18.06.2018 21:00:00 16,1 12,8 52 28 66 36 NE 0,0
18.06.2018 20:00:00 16,5 12,7 53 28 67 36 NE -
18.06.2018 19:00:00 17,1 13,0 52 28 63 34 NE 0,0
18.06.2018 18:00:00 17,2 13,1 48 26 67 36 NE 0,0
18.06.2018 17:00:00 17,0 13,3 54 29 64 35 NE 0,0
18.06.2018 16:00:00 17,1 13,6 48 26 60 33 NE 0,0

tt = temperature
td = dewpoint
ff = wind speed
fx = gusts
dd = wind direction
rr = precipitation

Next stations